Αναφορές METAR

 

LGKR - Ioannis Kapodist, Greece
Απόσταση από το σταθμό: ΝΝΑ 16km
Ενημερώθηκε: 22/08/2017 13:50
Διάσπαρτα Νέφη
Διάσπαρτα Νέφη
 Ανεμος από ΒΒΔ
Ανεμος: ΒΒΔ 13 km/h
Θερμοκρασία: 31°C
Heat Index: 31°C
Σημείο Δρόσου: 16°C
Υγρασία: 40%
Βαρόμετρο: 1011 hPa
Νέφωση: Διάσπαρτα Νέφη
Ορατότητα: 10 km
Λεπτομέρειες νέφωσης: Διάσπαρτα Νέφη 914 m
2017/08/22 10:50 LGKR 221050Z 33007KT 9999 FEW030 31/16 Q1011 NOSIG
LGIO - Ioannina, Greece
Απόσταση από το σταθμό: Α 84km
Ενημερώθηκε: 22/08/2017 13:50
Μερικώς Νεφελώδης
Μερικώς Νεφελώδης
 Ανεμος από μεταβλητός
Ανεμος: μεταβλητός 0 km/h
Θερμοκρασία: 29°C
Heat Index: 28°C
Σημείο Δρόσου: 14°C
Υγρασία: 40%
Βαρόμετρο: 1015 hPa
Νέφωση: Μερικώς Νεφελώδης
Ορατότητα: 10 km
Λεπτομέρειες νέφωσης: Μερικώς Νεφελώδης 1067 m
2017/08/22 10:50 LGIO 221050Z /////KT 9999 SCT035 29/14 Q1015
 
LGPZ - Preveza/Aktion, Greece
Απόσταση από το σταθμό: ΝΑ 122km
Ενημερώθηκε: 22/08/2017 13:50
Διάσπαρτα Νέφη
Διάσπαρτα Νέφη
 Ανεμος από Δ
Ανεμος: Δ 20 km/h
Θερμοκρασία: 31°C
Heat Index: 33°C
Σημείο Δρόσου: 20°C
Υγρασία: 52%
Βαρόμετρο: 1011 hPa
Νέφωση: Διάσπαρτα Νέφη
Ορατότητα: 10 km
Λεπτομέρειες νέφωσης: Διάσπαρτα Νέφη 762 m
2017/08/22 10:50 LGPZ 221050Z 26011KT 9999 FEW025 31/20 Q1011
LIBY - Santa Maria Di L, Italy
Απόσταση από το σταθμό: Δ 128km
Ενημερώθηκε: 22/08/2017 12:55
Διάσπαρτα Νέφη
Διάσπαρτα Νέφη
 Ανεμος από Β
Ανεμος: Β 20 km/h
Θερμοκρασία: 26°C
Σημείο Δρόσου: 14°C
Υγρασία: 48%
Βαρόμετρο: 1014 hPa
Νέφωση: Διάσπαρτα Νέφη
Ορατότητα: 10 km
Λεπτομέρειες νέφωσης: Διάσπαρτα Νέφη 549 m
2017/08/22 09:55 LIBY 220955Z 35011KT 9999 FEW018 26/14 Q1014 RMK FEW QUK 3 QUL 1 N VIS MAR 20 KM VIS MAX 20 KM VIS MIN 9999
 
LIBN - Lecce (it-Afb), Italy
Απόσταση από το σταθμό: ΔΒΔ 155km
Ενημερώθηκε: 22/08/2017 13:55
Κυρίως Νεφελώδης
Κυρίως Νεφελώδης
 Ανεμος από ΒΒΔ
Ανεμος: ΒΒΔ 26 km/h
Θερμοκρασία: 26°C
Σημείο Δρόσου: 14°C
Υγρασία: 48%
Βαρόμετρο: 1014 hPa
Νέφωση: Κυρίως Νεφελώδης
Ορατότητα: 10 km
Λεπτομέρειες νέφωσης: Κυρίως Νεφελώδης 1524 m
2017/08/22 10:55 LIBN 221055Z 34014KT 9999 BKN050 26/14 Q1014
LWOH - Ohrid, Macedonia
Απόσταση από το σταθμό: ΒΒΑ 177km
Ενημερώθηκε: 22/08/2017 14:00
Διάσπαρτα Νέφη
Διάσπαρτα Νέφη
 Ανεμος από Β
Ανεμος: Β 15 km/h
Θερμοκρασία: 23°C
Σημείο Δρόσου: 2°C
Υγρασία: 25%
Βαρόμετρο: 1017 hPa
Νέφωση: Διάσπαρτα Νέφη
Ορατότητα: 10 km
Λεπτομέρειες νέφωσης: Διάσπαρτα Νέφη 1219 m
2017/08/22 11:00 LWOH 221100Z 35008KT 9999 FEW040 23/02 Q1017
 
LGKZ - Kozani (civ/Army, Greece
Απόσταση από το σταθμό: ΑΒΑ 180km
Ενημερώθηκε: 22/08/2017 13:50
Διάσπαρτα Νέφη
Διάσπαρτα Νέφη
 Ανεμος από ΒΔ
Ανεμος: ΒΔ 22 km/h
Θερμοκρασία: 22°C
Σημείο Δρόσου: 2°C
Υγρασία: 27%
Βαρόμετρο: 1017 hPa
Νέφωση: Διάσπαρτα Νέφη
Ορατότητα: 10 km
Λεπτομέρειες νέφωσης: Διάσπαρτα Νέφη 762 m
2017/08/22 10:50 LGKZ 221050Z 32012KT 9999 FEW025 22/02 Q1017
LATI - Tirana, Albania
Απόσταση από το σταθμό: Β 186km
Ενημερώθηκε: 22/08/2017 13:50
Αίθριος
Αίθριος
 Ανεμος από ΔΝΔ
Ανεμος: ΔΝΔ 9 km/h
Θερμοκρασία: 29°C
Σημείο Δρόσου: 5°C
Υγρασία: 22%
Βαρόμετρο: 1013 hPa
Summary: Αίθριος
Ορατότητα: greater than 10 km
2017/08/22 10:50 LATI 221050Z 25005KT 210V270 CAVOK 29/05 Q1013 NOSIG
 
LIBR - Brindisi/Casale, Italy
Απόσταση από το σταθμό: ΔΒΔ 189km
Ενημερώθηκε: 22/08/2017 13:45
Διάσπαρτα Νέφη
Διάσπαρτα Νέφη
 Ανεμος από Β
Ανεμος: Β 28 km/h, Ριπή: 46 km/h
Θερμοκρασία: 27°C
Heat Index: 28°C
Σημείο Δρόσου: 19°C
Υγρασία: 62%
Βαρόμετρο: 1016 hPa
Νέφωση: Διάσπαρτα Νέφη
Ορατότητα: 10 km
Λεπτομέρειες νέφωσης: Διάσπαρτα Νέφη 610 m
2017/08/22 10:45 LIBR 221045Z 35015G25KT 9999 FEW020 27/19 Q1016 NOSIG
LGKF - Kefallinia, Greece
Απόσταση από το σταθμό: ΝΝΑ 190km
Ενημερώθηκε: 22/08/2017 13:50
Διάσπαρτα Νέφη
Διάσπαρτα Νέφη
 Ανεμος από Δ
Ανεμος: Δ 20 km/h
Θερμοκρασία: 29°C
Heat Index: 32°C
Σημείο Δρόσου: 22°C
Υγρασία: 66%
Βαρόμετρο: 1011 hPa
Νέφωση: Διάσπαρτα Νέφη
Ορατότητα: 10 km
Λεπτομέρειες νέφωσης: Διάσπαρτα Νέφη 549 m
2017/08/22 10:50 LGKF 221050Z 28011KT 9999 FEW018 29/22 Q1011
 
LGRX - Araxos (civ/Afb), Greece
Απόσταση από το σταθμό: ΝΑ 222km
Ενημερώθηκε: 22/08/2017 13:20
Μερικώς Νεφελώδης
Μερικώς Νεφελώδης
 Ανεμος από calm
Ανεμος: Απνοια
Θερμοκρασία: 29°C
Heat Index: 31°C
Σημείο Δρόσου: 20°C
Υγρασία: 58%
Βαρόμετρο: 1011 hPa
Νέφωση: Μερικώς Νεφελώδης
Ορατότητα: 10 km
Λεπτομέρειες νέφωσης: Μερικώς Νεφελώδης 610 m
2017/08/22 10:20 LGRX 221020Z 00000KT 9999 SCT020 29/20 Q1011
LIBG - Grottaglie(Civ/A, Italy
Απόσταση από το σταθμό: ΔΒΔ 226km
Ενημερώθηκε: 22/08/2017 13:50
Αίθριος
Αίθριος
 Ανεμος από ΒΒΔ
Ανεμος: ΒΒΔ 20 km/h
Θερμοκρασία: 27°C
Σημείο Δρόσου: 7°C
Υγρασία: 28%
Βαρόμετρο: 1015 hPa
Summary: Αίθριος
Ορατότητα: greater than 10 km
2017/08/22 10:50 LIBG 221050Z 34011KT 310V030 CAVOK 27/07 Q1015
 
LGAD - Andravida (civ/A, Greece
Απόσταση από το σταθμό: ΝΝΑ 238km
Ενημερώθηκε: 22/08/2017 13:50
Μερικώς Νεφελώδης
Μερικώς Νεφελώδης
 Ανεμος από ΒΔ
Ανεμος: ΒΔ 13 km/h
Θερμοκρασία: 29°C
Heat Index: 29°C
Σημείο Δρόσου: 17°C
Υγρασία: 48%
Βαρόμετρο: 1011 hPa
Νέφωση: Μερικώς Νεφελώδης
Ορατότητα: 10 km
Λεπτομέρειες νέφωσης: Μερικώς Νεφελώδης 549 m
2017/08/22 10:50 LGAD 221050Z 32007KT 9999 SCT018 29/17 Q1011
LGZA - Zakinthos Airpor, Greece
Απόσταση από το σταθμό: ΝΝΑ 239km
Ενημερώθηκε: 22/08/2017 13:50
Διάσπαρτα Νέφη
Διάσπαρτα Νέφη
 Ανεμος από ΔΒΔ
Ανεμος: ΔΒΔ 13 km/h
Θερμοκρασία: 30°C
Heat Index: 29°C
Σημείο Δρόσου: 15°C
Υγρασία: 40%
Βαρόμετρο: 1011 hPa
Νέφωση: Διάσπαρτα Νέφη
Ορατότητα: 10 km
Λεπτομέρειες νέφωσης: Διάσπαρτα Νέφη 610 m
2017/08/22 10:50 LGZA 221050Z 29007KT 9999 FEW020 30/15 Q1011
 
LIBC - Crotone, Italy
Απόσταση από το σταθμό: ΔΝΔ 253km
Ενημερώθηκε: 16/07/2017 12:50
ΜΗ ΠΡΟΣΦΑΤΟ METAR
Διάσπαρτα Νέφη
Διάσπαρτα Νέφη
 Ανεμος από ΒΔ
Ανεμος: ΒΔ 33 km/h
Θερμοκρασία: 26°C
Σημείο Δρόσου: 9°C
Υγρασία: 34%
Βαρόμετρο: 1015 hPa
Νέφωση: Διάσπαρτα Νέφη
Ορατότητα: 10 km
Λεπτομέρειες νέφωσης: Διάσπαρτα Νέφη 610 m
2017/07/16 09:50 LIBC 160950Z 31018KT 9999 FEW020 26/09 Q1015
LGBL - Nea Anchialos, Greece
Απόσταση από το σταθμό: ΑΝΑ 261km
Ενημερώθηκε: 22/08/2017 13:50
Διάσπαρτα Νέφη
Διάσπαρτα Νέφη
 Ανεμος από ΒΒΔ
Ανεμος: ΒΒΔ 9 km/h
Θερμοκρασία: 28°C
Σημείο Δρόσου: 9°C
Υγρασία: 30%
Βαρόμετρο: 1014 hPa
Νέφωση: Διάσπαρτα Νέφη
Ορατότητα: 10 km
Λεπτομέρειες νέφωσης: Διάσπαρτα Νέφη 1219 m
2017/08/22 10:50 LGBL 221050Z 33005KT 9999 FEW040 28/09 Q1014
 
LIBH - Marina Di Ginosa, Italy
Απόσταση από το σταθμό: ΔΒΔ 264km
Ενημερώθηκε: 22/08/2017 12:55
Κυρίως Νεφελώδης
Κυρίως Νεφελώδης
 Ανεμος από ΒΒΔ
Ανεμος: ΒΒΔ 20 km/h
Θερμοκρασία: 28°C
Σημείο Δρόσου: 10°C
Υγρασία: 32%
Βαρόμετρο: 1015 hPa
Νέφωση: Κυρίως Νεφελώδης
Ορατότητα: 10 km
Λεπτομέρειες νέφωσης: Κυρίως Νεφελώδης 762 m
2017/08/22 09:55 LIBH 220955Z 34011KT 9999 BKN025 28/10 Q1015 RMK BKN QUK 1 QUL 1 E VIS MAR 25 KM VIS MIN 9999
LIBV - Gioia Del Colle, Italy
Απόσταση από το σταθμό: ΔΒΔ 273km
Ενημερώθηκε: 22/08/2017 12:55
Μερικώς Νεφελώδης
Μερικώς Νεφελώδης
 Ανεμος από μεταβλητός
Ανεμος: μεταβλητός 0 km/h
Θερμοκρασία: 23°C
Σημείο Δρόσου: 11°C
Υγρασία: 47%
Βαρόμετρο: 1017 hPa
Νέφωση: Μερικώς Νεφελώδης
Ορατότητα: 10 km
Λεπτομέρειες νέφωσης: Μερικώς Νεφελώδης 762 m
2017/08/22 09:55 LIBV 220955Z /////KT 9999 SCT025 23/11 Q1017 RMK SCT VIS MIN 9999 WIND THR32 /////KT WIND THR14 34015KT BLU
 
LGTS - Thessaloniki/Mik, Greece
Απόσταση από το σταθμό: ΑΒΑ 279km
Ενημερώθηκε: 22/08/2017 13:50
Διάσπαρτα Νέφη
Διάσπαρτα Νέφη
 Ανεμος από ΒΒΔ
Ανεμος: ΒΒΔ 22 km/h, Ριπή: 41 km/h
Θερμοκρασία: 27°C
Σημείο Δρόσου: 6°C
Υγρασία: 26%
Βαρόμετρο: 1014 hPa
Νέφωση: Διάσπαρτα Νέφη
Ορατότητα: 10 km
Λεπτομέρειες νέφωσης: Διάσπαρτα Νέφη 914 m
2017/08/22 10:50 LGTS 221050Z 33012G22KT 9999 FEW030 27/06 Q1014 NOSIG
LWSK - Skopje/Petrovac, Macedonia
Απόσταση από το σταθμό: ΒΒΑ 289km
Ενημερώθηκε: 22/08/2017 14:00
Διάσπαρτα Νέφη
Διάσπαρτα Νέφη
 Ανεμος από ΒΒΔ
Ανεμος: ΒΒΔ 11 km/h
Θερμοκρασία: 23°C
Σημείο Δρόσου: 5°C
Υγρασία: 31%
Βαρόμετρο: 1017 hPa
Νέφωση: Διάσπαρτα Νέφη
Ορατότητα: 10 km
Λεπτομέρειες νέφωσης: Διάσπαρτα Νέφη 1829 m
2017/08/22 11:00 LWSK 221100Z 34006KT 290V360 9999 FEW060 23/05 Q1017 NOSIG


 ♦     ♦     ♦     Ποτέ μη βασίζετε κρίσιμες αποφάσεις σ'αυτές ή οποιεσδήποτε πληροφορίες καιρού από το Internet     ♦     ♦     ♦